| time (UTC) | temp F | wind direction | speed MPH | gust MPH | rain 1hr in | rain 24hr in | rain mn in | humidity % | barometer mb |
| 20260509122458 | 55 | 140 | 1.0 | 5.0 | 0.01 | 0.14 | 0.14 | 90 | 1008.8 |
| 20260509121959 | 55 | 135 | 1.0 | 5.0 | 0.01 | 0.14 | 0.14 | 90 | 1008.9 |
| 20260509121458 | 55 | 131 | 1.0 | 3.0 | 0.01 | 0.14 | 0.14 | 90 | 1009.0 |
| 20260509120958 | 55 | 133 | 1.0 | 3.0 | 0.01 | 0.14 | 0.14 | 90 | 1009.0 |
| 20260509120520 | 55 | 136 | 1.0 | 3.0 | 0.00 | 0.13 | 0.13 | 90 | 1009.0 |
| 20260509115958 | 55 | 134 | 1.0 | 5.0 | 0.00 | 0.13 | 0.13 | 90 | 1008.9 |
| 20260509115459 | 55 | 146 | 1.0 | 5.0 | 0.00 | 0.13 | 0.13 | 90 | 1008.8 |
| 20260509114958 | 55 | 169 | 1.0 | 3.0 | 0.00 | 0.13 | 0.13 | 90 | 1008.8 |
| 20260509114458 | 54 | 150 | 1.0 | 5.0 | 0.00 | 0.13 | 0.13 | 90 | 1008.9 |
| 20260509113959 | 54 | 136 | 2.0 | 5.0 | 0.00 | 0.13 | 0.13 | 90 | 1008.8 |
| 20260509113458 | 54 | 133 | 1.0 | 4.0 | 0.00 | 0.13 | 0.13 | 90 | 1008.8 |
| 20260509112959 | 54 | 133 | 1.0 | 4.0 | 0.00 | 0.13 | 0.13 | 90 | 1008.7 |
| 20260509112458 | 54 | 134 | 1.0 | 4.0 | 0.00 | 0.13 | 0.13 | 90 | 1008.6 |
| 20260509111959 | 54 | 122 | 1.0 | 3.0 | 0.00 | 0.13 | 0.13 | 90 | 1008.6 |
| 20260509111459 | 54 | 82 | 1.0 | 3.0 | 0.01 | 0.13 | 0.13 | 90 | 1008.6 |
| 20260509110958 | 54 | 50 | 1.0 | 2.0 | 0.01 | 0.13 | 0.13 | 90 | 1008.5 |
| 20260509110520 | 54 | 36 | 0.0 | 2.0 | 0.02 | 0.13 | 0.13 | 90 | 1008.5 |
| 20260509105958 | 54 | 19 | 0.0 | 1.0 | 0.02 | 0.13 | 0.13 | 90 | 1008.5 |
| 20260509105458 | 54 | 19 | 0.0 | 1.0 | 0.02 | 0.13 | 0.13 | 90 | 1008.4 |
| 20260509105020 | 55 | 29 | 0.0 | 2.0 | 0.03 | 0.13 | 0.13 | 90 | 1008.3 |
| 20260509104458 | 54 | 37 | 0.0 | 2.0 | 0.03 | 0.13 | 0.13 | 90 | 1008.4 |
| 20260509103959 | 54 | 38 | 1.0 | 2.0 | 0.04 | 0.13 | 0.13 | 90 | 1008.8 |
| 20260509103458 | 54 | 37 | 1.0 | 2.0 | 0.04 | 0.13 | 0.13 | 90 | 1008.9 |
| 20260509102959 | 54 | 33 | 0.0 | 2.0 | 0.04 | 0.13 | 0.13 | 90 | 1009.0 |
| 20260509102458 | 54 | 0 | 0.0 | 0.0 | 0.04 | 0.13 | 0.13 | 90 | 1009.0 |
| 20260509102020 | 54 | 19 | 0.0 | 1.0 | 0.04 | 0.13 | 0.13 | 90 | 1009.1 |
| 20260509101459 | 54 | 19 | 0.0 | 1.0 | 0.03 | 0.12 | 0.12 | 90 | 1009.1 |
| 20260509100958 | 54 | 19 | 0.0 | 1.0 | 0.03 | 0.12 | 0.12 | 90 | 1009.1 |
| 20260509100458 | 54 | 19 | 0.0 | 1.0 | 0.03 | 0.11 | 0.11 | 90 | 1009.2 |
| 20260509095959 | 54 | 19 | 0.0 | 1.0 | 0.03 | 0.11 | 0.11 | 90 | 1009.1 |
| 20260509095458 | 54 | 19 | 0.0 | 1.0 | 0.03 | 0.11 | 0.11 | 90 | 1009.2 |
| 20260509094959 | 54 | 19 | 0.0 | 1.0 | 0.03 | 0.10 | 0.10 | 90 | 1009.2 |
| 20260509094459 | 54 | 0 | 0.0 | 0.0 | 0.03 | 0.10 | 0.10 | 90 | 1009.2 |
| 20260509093958 | 54 | 19 | 0.0 | 1.0 | 0.02 | 0.09 | 0.09 | 90 | 1009.1 |
| 20260509093459 | 54 | 19 | 1.0 | 2.0 | 0.02 | 0.09 | 0.09 | 90 | 1009.3 |
| 20260509092958 | 54 | 19 | 0.0 | 2.0 | 0.02 | 0.09 | 0.09 | 89 | 1009.2 |
| 20260509092459 | 54 | 19 | 0.0 | 2.0 | 0.03 | 0.09 | 0.09 | 90 | 1009.0 |
| 20260509091959 | 54 | 19 | 0.0 | 1.0 | 0.03 | 0.09 | 0.09 | 90 | 1009.0 |
| 20260509091520 | 54 | 19 | 0.0 | 1.0 | 0.03 | 0.09 | 0.09 | 90 | 1009.1 |
| 20260509090958 | 54 | 19 | 0.0 | 1.0 | 0.04 | 0.09 | 0.09 | 90 | 1009.2 |
| 20260509090459 | 54 | 19 | 0.0 | 1.0 | 0.03 | 0.08 | 0.08 | 90 | 1009.3 |
| 20260509085959 | 54 | 0 | 0.0 | 0.0 | 0.03 | 0.08 | 0.08 | 89 | 1009.3 |
| 20260509085459 | 54 | 19 | 0.0 | 1.0 | 0.02 | 0.07 | 0.07 | 89 | 1009.4 |
| 20260509084959 | 54 | 19 | 0.0 | 1.0 | 0.02 | 0.07 | 0.07 | 89 | 1009.5 |
| 20260509084459 | 54 | 19 | 0.0 | 1.0 | 0.02 | 0.07 | 0.07 | 89 | 1009.7 |
| 20260509083958 | 54 | 19 | 0.0 | 1.0 | 0.02 | 0.07 | 0.07 | 90 | 1009.8 |
| 20260509083459 | 54 | 0 | 0.0 | 0.0 | 0.03 | 0.07 | 0.07 | 89 | 1009.8 |
| 20260509082958 | 54 | 19 | 0.0 | 1.0 | 0.03 | 0.07 | 0.07 | 89 | 1009.8 |
| 20260509082459 | 54 | 19 | 0.0 | 1.0 | 0.02 | 0.06 | 0.06 | 89 | 1009.8 |
| 20260509081959 | 54 | 19 | 0.0 | 1.0 | 0.02 | 0.06 | 0.06 | 89 | 1009.9 |
| 20260509081459 | 54 | 19 | 0.0 | 1.0 | 0.02 | 0.06 | 0.06 | 89 | 1009.9 |
| 20260509080959 | 54 | 19 | 0.0 | 1.0 | 0.02 | 0.05 | 0.05 | 89 | 1010.0 |
| 20260509080459 | 54 | 19 | 0.0 | 1.0 | 0.02 | 0.05 | 0.05 | 89 | 1009.9 |
| 20260509080020 | 54 | 19 | 0.0 | 1.0 | 0.02 | 0.05 | 0.05 | 89 | 1009.8 |
| 20260509075459 | 54 | 0 | 0.0 | 0.0 | 0.02 | 0.05 | 0.05 | 89 | 1009.7 |
| 20260509075019 | 54 | 0 | 0.0 | 0.0 | 0.02 | 0.05 | 0.05 | 89 | 1009.7 |
| 20260509074459 | 54 | 0 | 0.0 | 0.0 | 0.02 | 0.05 | 0.05 | 89 | 1009.7 |
| 20260509073958 | 54 | 0 | 0.0 | 0.0 | 0.01 | 0.04 | 0.04 | 89 | 1009.8 |
| 20260509073458 | 54 | 19 | 0.0 | 1.0 | 0.02 | 0.04 | 0.04 | 89 | 1009.7 |
| 20260509072959 | 55 | 19 | 0.0 | 1.0 | 0.02 | 0.04 | 0.04 | 89 | 1009.7 |
| 20260509072520 | 55 | 19 | 0.0 | 1.0 | 0.02 | 0.04 | 0.04 | 89 | 1009.7 |
| 20260509071959 | 55 | 19 | 0.0 | 1.0 | 0.02 | 0.04 | 0.04 | 89 | 1009.7 |
| 20260509071458 | 55 | 19 | 0.0 | 1.0 | 0.01 | 0.03 | 0.04 | 89 | 1009.8 |
| 20260509070959 | 55 | 0 | 0.0 | 0.0 | 0.02 | 0.03 | 0.03 | 89 | 1010.0 |
| 20260509070519 | 55 | 19 | 0.0 | 1.0 | 0.02 | 0.03 | 0.03 | 89 | 1010.1 |
| 20260509065958 | 55 | 19 | 0.0 | 1.0 | 0.02 | 0.03 | 0.03 | 89 | 1010.2 |
| 20260509065459 | 55 | 19 | 0.0 | 1.0 | 0.02 | 0.03 | 0.03 | 89 | 1010.3 |
| 20260509064959 | 55 | 19 | 0.0 | 1.0 | 0.02 | 0.03 | 0.03 | 89 | 1010.4 |
| 20260509064459 | 55 | 19 | 0.0 | 1.0 | 0.02 | 0.03 | 0.03 | 89 | 1010.4 |
| 20260509063959 | 55 | 19 | 0.0 | 1.0 | 0.02 | 0.03 | 0.03 | 89 | 1010.5 |
| 20260509063519 | 55 | 19 | 0.0 | 1.0 | 0.01 | 0.02 | 0.02 | 89 | 1010.4 |
| 20260509062959 | 55 | 19 | 0.0 | 2.0 | 0.01 | 0.02 | 0.02 | 89 | 1010.4 |
| 20260509062459 | 55 | 19 | 0.0 | 2.0 | 0.01 | 0.02 | 0.02 | 89 | 1010.5 |
| 20260509061959 | 55 | 19 | 0.0 | 2.0 | 0.01 | 0.02 | 0.02 | 89 | 1010.5 |
| 20260509061458 | 55 | 19 | 0.0 | 2.0 | 0.01 | 0.02 | 0.02 | 89 | 1010.6 |
| 20260509061020 | 55 | 19 | 0.0 | 1.0 | 0.00 | 0.01 | 0.01 | 89 | 1010.6 |
| 20260509060459 | 55 | 19 | 0.0 | 1.0 | 0.00 | 0.01 | 0.01 | 88 | 1010.5 |
| 20260509055959 | 55 | 19 | 0.0 | 2.0 | 0.00 | 0.01 | 0.01 | 88 | 1010.5 |
| 20260509055459 | 55 | 19 | 0.0 | 2.0 | 0.00 | 0.01 | 0.01 | 88 | 1010.4 |
| 20260509054959 | 55 | 19 | 0.0 | 1.0 | 0.00 | 0.01 | 0.01 | 88 | 1010.4 |
| 20260509054520 | 55 | 19 | 0.0 | 1.0 | 0.00 | 0.01 | 0.01 | 88 | 1010.4 |
| 20260509053958 | 55 | 19 | 0.0 | 1.0 | 0.01 | 0.01 | 0.01 | 88 | 1010.3 |
| 20260509053519 | 56 | 19 | 0.0 | 1.0 | 0.01 | 0.01 | 0.01 | 88 | 1010.3 |
| 20260509052959 | 56 | 19 | 0.0 | 1.0 | 0.01 | 0.01 | 0.01 | 88 | 1010.3 |
| 20260509052459 | 56 | 19 | 0.0 | 1.0 | 0.01 | 0.01 | 0.01 | 87 | 1010.4 |
| 20260509051959 | 56 | 19 | 0.0 | 1.0 | 0.01 | 0.01 | 0.01 | 87 | 1010.3 |
| 20260509051459 | 56 | 19 | 0.0 | 2.0 | 0.01 | 0.01 | 0.01 | 87 | 1010.4 |
| 20260509050959 | 56 | 19 | 0.0 | 2.0 | 0.01 | 0.01 | 0.01 | 87 | 1010.4 |
| 20260509050459 | 56 | 20 | 0.0 | 2.0 | 0.01 | 0.01 | 0.01 | 87 | 1010.4 |
| 20260509045958 | 56 | 21 | 0.0 | 2.0 | 0.01 | 0.01 | 0.01 | 86 | 1010.4 |
| 20260509045459 | 56 | 12 | 1.0 | 2.0 | 0.01 | 0.01 | 0.01 | 86 | 1010.5 |
| 20260509044959 | 56 | 4 | 1.0 | 4.0 | 0.01 | 0.01 | 0.01 | 86 | 1010.5 |
| 20260509044520 | 56 | 3 | 1.0 | 4.0 | 0.01 | 0.01 | 0.01 | 86 | 1010.5 |
| 20260509044020 | 56 | 6 | 1.0 | 4.0 | 0.00 | 0.00 | 0.00 | 86 | 1010.6 |
| 20260509043520 | 56 | 11 | 0.0 | 2.0 | 0.00 | 0.00 | 0.00 | 85 | 1010.7 |
| 20260509042959 | 56 | 5 | 0.0 | 2.0 | 0.00 | 0.00 | 0.00 | 85 | 1010.8 |
| 20260509042459 | 57 | 7 | 1.0 | 2.0 | 0.00 | 0.00 | 0.00 | 85 | 1010.8 |
| 20260509041959 | 57 | 8 | 0.0 | 2.0 | 0.00 | 0.00 | 0.00 | 85 | 1010.8 |
| 20260509041520 | 57 | 7 | 0.0 | 2.0 | 0.00 | 0.00 | 0.00 | 84 | 1010.8 |
| 20260509040959 | 57 | 5 | 0.0 | 2.0 | 0.00 | 0.00 | 0.00 | 84 | 1010.8 |
| 20260509040459 | 57 | 5 | 0.0 | 2.0 | 0.00 | 0.00 | 0.00 | 84 | 1010.8 |
| 20260509035958 | 57 | 5 | 1.0 | 2.0 | 0.00 | 0.00 | 0.00 | 84 | 1010.8 |
| 20260509035459 | 57 | 12 | 1.0 | 2.0 | 0.00 | 0.00 | 0.00 | 83 | 1010.8 |
| 20260509035020 | 57 | 24 | 0.0 | 2.0 | 0.00 | 0.00 | 0.00 | 83 | 1010.8 |
| 20260509034459 | 57 | 31 | 0.0 | 2.0 | 0.00 | 0.00 | 0.00 | 83 | 1010.8 |
| 20260509033959 | 57 | 32 | 0.0 | 2.0 | 0.00 | 0.00 | 0.00 | 83 | 1010.8 |
| 20260509033459 | 57 | 23 | 1.0 | 3.0 | 0.00 | 0.00 | 0.00 | 82 | 1010.9 |
| 20260509032959 | 57 | 12 | 1.0 | 3.0 | 0.00 | 0.00 | 0.00 | 82 | 1011.0 |
| 20260509032459 | 57 | 2 | 1.0 | 5.0 | 0.00 | 0.00 | 0.00 | 82 | 1011.1 |
| 20260509031959 | 57 | 354 | 1.0 | 5.0 | 0.00 | 0.00 | 0.00 | 82 | 1011.1 |
| 20260509031459 | 57 | 360 | 1.0 | 6.0 | 0.00 | 0.00 | 0.00 | 81 | 1011.2 |
| 20260509030959 | 57 | 9 | 1.0 | 6.0 | 0.00 | 0.00 | 0.00 | 81 | 1011.2 |
| 20260509030459 | 57 | 3 | 1.0 | 3.0 | 0.00 | 0.00 | 0.00 | 81 | 1011.2 |
| 20260509025959 | 58 | 346 | 1.0 | 3.0 | 0.00 | 0.00 | 0.00 | 81 | 1011.2 |
| 20260509025459 | 58 | 356 | 2.0 | 9.0 | 0.00 | 0.00 | 0.00 | 80 | 1011.2 |
| 20260509024959 | 58 | 4 | 3.0 | 9.0 | 0.00 | 0.00 | 0.00 | 79 | 1011.3 |
| 20260509024459 | 58 | 5 | 2.0 | 7.0 | 0.00 | 0.00 | 0.00 | 79 | 1011.3 |
| 20260509023959 | 58 | 5 | 2.0 | 9.0 | 0.00 | 0.00 | 0.00 | 79 | 1011.4 |
| 20260509023459 | 58 | 359 | 2.0 | 9.0 | 0.00 | 0.00 | 0.00 | 78 | 1011.4 |
| 20260509022958 | 58 | 333 | 2.0 | 8.0 | 0.00 | 0.00 | 0.00 | 78 | 1011.4 |
| 20260509022459 | 59 | 324 | 2.0 | 6.0 | 0.00 | 0.00 | 0.00 | 77 | 1011.3 |
| 20260509021959 | 59 | 331 | 1.0 | 6.0 | 0.00 | 0.00 | 0.00 | 76 | 1011.4 |
| 20260509021459 | 60 | 322 | 1.0 | 3.0 | 0.00 | 0.00 | 0.00 | 75 | 1011.2 |
| 20260509020959 | 60 | 323 | 0.0 | 3.0 | 0.00 | 0.00 | 0.00 | 74 | 1011.0 |
| 20260509020520 | 60 | 308 | 0.0 | 1.0 | 0.00 | 0.00 | 0.00 | 73 | 1010.9 |
| 20260509015959 | 60 | 308 | 0.0 | 1.0 | 0.00 | 0.00 | 0.00 | 73 | 1010.7 |
| 20260509015459 | 60 | 309 | 0.0 | 1.0 | 0.00 | 0.00 | 0.00 | 74 | 1010.6 |
| 20260509014959 | 61 | 309 | 0.0 | 1.0 | 0.00 | 0.00 | 0.00 | 71 | 1010.6 |
| 20260509014459 | 61 | 309 | 0.0 | 1.0 | 0.00 | 0.00 | 0.00 | 69 | 1010.5 |
| 20260509013959 | 61 | 309 | 0.0 | 1.0 | 0.00 | 0.00 | 0.00 | 68 | 1010.5 |
| 20260509013520 | 62 | 309 | 0.0 | 2.0 | 0.00 | 0.00 | 0.00 | 68 | 1010.5 |
| 20260509012959 | 62 | 307 | 1.0 | 2.0 | 0.00 | 0.00 | 0.00 | 66 | 1010.5 |
| 20260509012459 | 62 | 246 | 1.0 | 4.0 | 0.00 | 0.00 | 0.00 | 63 | 1010.6 |
| 20260509011959 | 62 | 205 | 2.0 | 11.0 | 0.00 | 0.00 | 0.00 | 60 | 1010.6 |
| 20260509011459 | 62 | 205 | 2.0 | 11.0 | 0.00 | 0.00 | 0.00 | 62 | 1010.7 |
| 20260509010959 | 61 | 239 | 1.0 | 8.0 | 0.00 | 0.00 | 0.00 | 62 | 1010.7 |
| 20260509010459 | 62 | 289 | 0.0 | 2.0 | 0.00 | 0.00 | 0.00 | 66 | 1010.8 |
| 20260509005959 | 62 | 289 | 0.0 | 2.0 | 0.00 | 0.00 | 0.00 | 65 | 1010.6 |
| 20260509005500 | 63 | 289 | 0.0 | 1.0 | 0.00 | 0.00 | 0.00 | 62 | 1010.5 |
| 20260509004959 | 63 | 289 | 0.0 | 1.0 | 0.00 | 0.00 | 0.00 | 61 | 1010.5 |
| 20260509004459 | 63 | 289 | 0.0 | 1.0 | 0.00 | 0.00 | 0.00 | 60 | 1010.4 |
| 20260509003959 | 63 | 289 | 0.0 | 1.0 | 0.00 | 0.00 | 0.00 | 58 | 1010.3 |
| 20260509003500 | 63 | 289 | 0.0 | 1.0 | 0.00 | 0.00 | 0.00 | 56 | 1010.2 |
| 20260509002959 | 64 | 289 | 0.0 | 1.0 | 0.00 | 0.00 | 0.00 | 56 | 1010.1 |
| 20260509002459 | 64 | 289 | 0.0 | 1.0 | 0.00 | 0.00 | 0.00 | 56 | 1010.1 |
| 20260509001959 | 64 | 289 | 0.0 | 1.0 | 0.00 | 0.00 | 0.00 | 55 | 1010.1 |
| 20260509001459 | 64 | 289 | 0.0 | 1.0 | 0.00 | 0.00 | 0.00 | 54 | 1010.1 |
| 20260509000959 | 64 | 289 | 0.0 | 1.0 | 0.00 | 0.00 | 0.00 | 54 | 1010.2 |
| 20260509000459 | 65 | 289 | 0.0 | 1.0 | 0.00 | 0.00 | 0.00 | 53 | 1010.4 |
| 20260509000020 | 65 | 277 | 0.0 | 2.0 | 0.00 | 0.00 | 0.00 | 54 | 1010.5 |
| 20260508235459 | 65 | 265 | 0.0 | 2.0 | 0.00 | 0.00 | 0.00 | 57 | 1010.3 |
| 20260508235000 | 65 | 236 | 0.0 | 1.0 | 0.00 | 0.00 | 0.00 | 54 | 1010.2 |
| 20260508234459 | 65 | 236 | 0.0 | 2.0 | 0.00 | 0.00 | 0.00 | 55 | 1010.2 |
| 20260508233959 | 65 | 236 | 0.0 | 2.0 | 0.00 | 0.00 | 0.00 | 53 | 1010.1 |
| 20260508233459 | 66 | 236 | 0.0 | 2.0 | 0.00 | 0.00 | 0.00 | 53 | 1010.1 |
| 20260508233020 | 66 | 236 | 0.0 | 2.0 | 0.00 | 0.00 | 0.00 | 52 | 1010.0 |
| 20260508232459 | 66 | 236 | 0.0 | 2.0 | 0.00 | 0.00 | 0.00 | 55 | 1010.1 |
| 20260508232020 | 66 | 236 | 0.0 | 3.0 | 0.00 | 0.00 | 0.00 | 51 | 1010.1 |
| 20260508231459 | 66 | 236 | 0.0 | 3.0 | 0.00 | 0.00 | 0.00 | 51 | 1010.3 |
| 20260508230959 | 66 | 235 | 1.0 | 3.0 | 0.00 | 0.00 | 0.00 | 50 | 1010.3 |
| 20260508230520 | 66 | 233 | 0.0 | 3.0 | 0.00 | 0.00 | 0.00 | 51 | 1010.2 |
| 20260508230020 | 66 | 231 | 0.0 | 2.0 | 0.00 | 0.00 | 0.00 | 51 | 1010.1 |
| 20260508225459 | 67 | 231 | 0.0 | 2.0 | 0.00 | 0.00 | 0.00 | 49 | 1010.1 |
| 20260508224959 | 67 | 231 | 0.0 | 2.0 | 0.00 | 0.00 | 0.00 | 52 | 1010.1 |
| 20260508224459 | 67 | 241 | 0.0 | 2.0 | 0.00 | 0.00 | 0.00 | 49 | 1010.1 |
| 20260508223959 | 67 | 241 | 1.0 | 7.0 | 0.00 | 0.00 | 0.00 | 47 | 1009.9 |
| 20260508223459 | 68 | 238 | 2.0 | 7.0 | 0.00 | 0.00 | 0.00 | 46 | 1010.0 |
| 20260508222959 | 68 | 221 | 1.0 | 7.0 | 0.00 | 0.00 | 0.00 | 46 | 1010.0 |
| 20260508222459 | 68 | 210 | 1.0 | 8.0 | 0.00 | 0.00 | 0.00 | 47 | 1010.0 |
| 20260508222020 | 68 | 218 | 1.0 | 8.0 | 0.00 | 0.00 | 0.00 | 45 | 1009.9 |
| 20260508221459 | 68 | 187 | 1.0 | 6.0 | 0.00 | 0.00 | 0.00 | 46 | 1010.0 |
| 20260508221000 | 68 | 199 | 1.0 | 6.0 | 0.00 | 0.00 | 0.00 | 45 | 1010.0 |
| 20260508220459 | 68 | 249 | 1.0 | 5.0 | 0.00 | 0.00 | 0.00 | 45 | 1009.9 |
| 20260508215959 | 68 | 193 | 2.0 | 7.0 | 0.00 | 0.00 | 0.00 | 45 | 1009.9 |
| 20260508215459 | 68 | 152 | 2.0 | 8.0 | 0.00 | 0.00 | 0.00 | 45 | 1009.9 |
| 20260508214959 | 68 | 186 | 2.0 | 9.0 | 0.00 | 0.00 | 0.00 | 46 | 1009.9 |
| 20260508214500 | 68 | 217 | 3.0 | 9.0 | 0.00 | 0.00 | 0.00 | 43 | 1009.8 |
| 20260508213959 | 68 | 196 | 2.0 | 8.0 | 0.00 | 0.00 | 0.00 | 44 | 1009.8 |
| 20260508213500 | 68 | 196 | 2.0 | 8.0 | 0.00 | 0.00 | 0.00 | 43 | 1010.0 |
| 20260508212959 | 68 | 222 | 2.0 | 5.0 | 0.00 | 0.00 | 0.00 | 43 | 1010.1 |
| 20260508212459 | 68 | 207 | 2.0 | 8.0 | 0.00 | 0.00 | 0.00 | 45 | 1010.1 |
| 20260508211959 | 68 | 194 | 2.0 | 8.0 | 0.00 | 0.00 | 0.00 | 44 | 1010.1 |
| 20260508211459 | 68 | 191 | 2.0 | 8.0 | 0.00 | 0.00 | 0.00 | 43 | 1010.2 |
| 20260508210959 | 68 | 187 | 3.0 | 8.0 | 0.00 | 0.00 | 0.00 | 45 | 1010.2 |
| 20260508210521 | 68 | 185 | 2.0 | 7.0 | 0.00 | 0.00 | 0.00 | 43 | 1010.2 |
| 20260508205959 | 68 | 166 | 2.0 | 8.0 | 0.00 | 0.00 | 0.00 | 43 | 1010.4 |
| 20260508205459 | 68 | 152 | 3.0 | 8.0 | 0.00 | 0.00 | 0.00 | 42 | 1010.6 |
| 20260508204959 | 68 | 171 | 1.0 | 7.0 | 0.00 | 0.00 | 0.00 | 44 | 1010.7 |
| 20260508204459 | 68 | 200 | 1.0 | 4.0 | 0.00 | 0.00 | 0.00 | 46 | 1010.8 |
| 20260508204021 | 68 | 166 | 2.0 | 8.0 | 0.00 | 0.00 | 0.00 | 44 | 1010.9 |
| 20260508203520 | 68 | 175 | 2.0 | 8.0 | 0.00 | 0.00 | 0.00 | 43 | 1010.8 |
| 20260508202959 | 68 | 211 | 1.0 | 7.0 | 0.00 | 0.00 | 0.00 | 43 | 1010.9 |
| 20260508202500 | 68 | 236 | 2.0 | 4.0 | 0.00 | 0.00 | 0.00 | 43 | 1011.1 |
| 20260508201959 | 68 | 227 | 2.0 | 8.0 | 0.00 | 0.00 | 0.00 | 42 | 1011.2 |
| 20260508201520 | 68 | 173 | 1.0 | 8.0 | 0.00 | 0.00 | 0.00 | 42 | 1011.2 |
| 20260508201020 | 68 | 153 | 2.0 | 5.0 | 0.00 | 0.00 | 0.00 | 42 | 1011.3 |
| 20260508200459 | 68 | 211 | 2.0 | 12.0 | 0.00 | 0.00 | 0.00 | 44 | 1011.4 |
| 20260508195959 | 68 | 219 | 2.0 | 8.0 | 0.00 | 0.00 | 0.00 | 44 | 1011.4 |
| 20260508195500 | 68 | 202 | 2.0 | 7.0 | 0.00 | 0.00 | 0.00 | 44 | 1011.3 |
| 20260508194959 | 68 | 223 | 2.0 | 6.0 | 0.00 | 0.00 | 0.00 | 44 | 1011.4 |
| 20260508194520 | 68 | 244 | 2.0 | 6.0 | 0.00 | 0.00 | 0.00 | 43 | 1011.4 |
| 20260508193959 | 68 | 240 | 2.0 | 5.0 | 0.00 | 0.00 | 0.00 | 42 | 1011.5 |
| 20260508193500 | 68 | 224 | 3.0 | 8.0 | 0.00 | 0.00 | 0.00 | 41 | 1011.5 |
| 20260508192959 | 68 | 217 | 3.0 | 10.0 | 0.00 | 0.00 | 0.00 | 41 | 1011.6 |
| 20260508192520 | 68 | 230 | 3.0 | 10.0 | 0.00 | 0.00 | 0.00 | 42 | 1011.6 |
| 20260508192020 | 69 | 223 | 2.0 | 10.0 | 0.00 | 0.00 | 0.00 | 42 | 1011.5 |
| 20260508191500 | 69 | 222 | 2.0 | 8.0 | 0.00 | 0.00 | 0.00 | 41 | 1011.6 |
| 20260508190959 | 69 | 174 | 2.0 | 10.0 | 0.00 | 0.00 | 0.00 | 43 | 1011.8 |
| 20260508190459 | 70 | 158 | 2.0 | 10.0 | 0.00 | 0.00 | 0.00 | 41 | 1011.7 |
| 20260508190000 | 70 | 209 | 2.0 | 8.0 | 0.00 | 0.00 | 0.00 | 43 | 1011.9 |
| 20260508185500 | 70 | 243 | 3.0 | 9.0 | 0.00 | 0.00 | 0.00 | 40 | 1011.9 |
| 20260508185021 | 70 | 227 | 3.0 | 9.0 | 0.00 | 0.00 | 0.00 | 41 | 1012.1 |
| 20260508184520 | 70 | 201 | 3.0 | 7.0 | 0.00 | 0.00 | 0.00 | 42 | 1012.1 |
| 20260508184000 | 70 | 204 | 3.0 | 8.0 | 0.00 | 0.00 | 0.00 | 40 | 1012.1 |
| 20260508183500 | 70 | 207 | 3.0 | 11.0 | 0.00 | 0.00 | 0.00 | 40 | 1012.2 |
| 20260508182959 | 70 | 202 | 3.0 | 11.0 | 0.00 | 0.00 | 0.00 | 41 | 1012.3 |
| 20260508182459 | 69 | 230 | 3.0 | 12.0 | 0.00 | 0.00 | 0.00 | 43 | 1012.3 |
| 20260508181959 | 69 | 246 | 4.0 | 12.0 | 0.00 | 0.00 | 0.00 | 39 | 1012.7 |
| 20260508181500 | 69 | 236 | 4.0 | 12.0 | 0.00 | 0.00 | 0.00 | 42 | 1012.8 |
| 20260508180959 | 69 | 210 | 3.0 | 8.0 | 0.00 | 0.00 | 0.00 | 44 | 1012.8 |
| 20260508180459 | 69 | 218 | 3.0 | 7.0 | 0.00 | 0.00 | 0.00 | 44 | 1012.8 |
| 20260508180000 | 69 | 232 | 3.0 | 10.0 | 0.00 | 0.00 | 0.00 | 42 | 1012.9 |
| 20260508175459 | 70 | 217 | 3.0 | 10.0 | 0.00 | 0.00 | 0.00 | 44 | 1012.9 |
| 20260508175020 | 70 | 213 | 3.0 | 10.0 | 0.00 | 0.00 | 0.00 | 45 | 1013.1 |
| 20260508174459 | 69 | 178 | 3.0 | 10.0 | 0.00 | 0.00 | 0.00 | 46 | 1013.1 |
| 20260508174000 | 69 | 156 | 2.0 | 9.0 | 0.00 | 0.00 | 0.00 | 43 | 1013.2 |
| 20260508173459 | 68 | 190 | 2.0 | 8.0 | 0.00 | 0.00 | 0.00 | 46 | 1013.3 |
| 20260508173021 | 68 | 214 | 3.0 | 9.0 | 0.00 | 0.00 | 0.00 | 46 | 1013.3 |
| 20260508172500 | 68 | 246 | 4.0 | 9.0 | 0.00 | 0.00 | 0.00 | 44 | 1013.5 |
| 20260508172000 | 68 | 241 | 3.0 | 9.0 | 0.00 | 0.00 | 0.00 | 45 | 1013.5 |
| 20260508171459 | 68 | 221 | 4.0 | 11.0 | 0.00 | 0.00 | 0.00 | 44 | 1013.7 |
| 20260508170959 | 68 | 193 | 4.0 | 11.0 | 0.00 | 0.00 | 0.00 | 45 | 1013.8 |
| 20260508170459 | 68 | 183 | 3.0 | 10.0 | 0.00 | 0.00 | 0.00 | 47 | 1013.8 |
| 20260508170000 | 68 | 195 | 3.0 | 9.0 | 0.00 | 0.00 | 0.00 | 45 | 1013.9 |
| 20260508165459 | 68 | 197 | 3.0 | 7.0 | 0.00 | 0.00 | 0.00 | 45 | 1014.0 |
| 20260508164959 | 68 | 173 | 4.0 | 13.0 | 0.00 | 0.00 | 0.00 | 44 | 1014.2 |
| 20260508164500 | 68 | 169 | 4.0 | 13.0 | 0.00 | 0.00 | 0.00 | 45 | 1014.3 |
| 20260508164020 | 68 | 188 | 3.0 | 12.0 | 0.00 | 0.00 | 0.00 | 46 | 1014.4 |
| 20260508163459 | 68 | 174 | 4.0 | 14.0 | 0.00 | 0.00 | 0.00 | 48 | 1014.4 |
| 20260508162959 | 67 | 160 | 4.0 | 14.0 | 0.00 | 0.00 | 0.00 | 48 | 1014.5 |
| 20260508162459 | 68 | 162 | 4.0 | 12.0 | 0.00 | 0.00 | 0.00 | 47 | 1014.5 |
| 20260508161959 | 67 | 175 | 4.0 | 11.0 | 0.00 | 0.00 | 0.00 | 46 | 1014.7 |
| 20260508161459 | 67 | 195 | 3.0 | 11.0 | 0.00 | 0.00 | 0.00 | 47 | 1014.7 |
| 20260508161021 | 67 | 218 | 3.0 | 11.0 | 0.00 | 0.00 | 0.00 | 48 | 1014.7 |
| 20260508160459 | 66 | 255 | 4.0 | 11.0 | 0.00 | 0.00 | 0.00 | 47 | 1014.8 |
| 20260508160000 | 66 | 240 | 4.0 | 13.0 | 0.00 | 0.00 | 0.00 | 47 | 1014.8 |
| 20260508155500 | 66 | 192 | 3.0 | 13.0 | 0.00 | 0.00 | 0.00 | 47 | 1014.9 |
| 20260508154959 | 66 | 178 | 3.0 | 11.0 | 0.00 | 0.00 | 0.00 | 51 | 1015.0 |
| 20260508154500 | 65 | 215 | 4.0 | 16.0 | 0.00 | 0.00 | 0.00 | 51 | 1015.0 |
| 20260508154000 | 65 | 202 | 4.0 | 16.0 | 0.00 | 0.00 | 0.00 | 52 | 1015.1 |
| 20260508153520 | 65 | 182 | 3.0 | 12.0 | 0.00 | 0.00 | 0.00 | 50 | 1015.2 |
| 20260508153021 | 64 | 209 | 4.0 | 10.0 | 0.00 | 0.00 | 0.00 | 50 | 1015.3 |
| 20260508152459 | 64 | 190 | 4.0 | 12.0 | 0.00 | 0.00 | 0.00 | 49 | 1015.3 |
| 20260508152000 | 64 | 171 | 4.0 | 11.0 | 0.00 | 0.00 | 0.00 | 51 | 1015.4 |
| 20260508151459 | 64 | 204 | 3.0 | 11.0 | 0.00 | 0.00 | 0.00 | 51 | 1015.4 |
| 20260508151000 | 64 | 224 | 3.0 | 16.0 | 0.00 | 0.00 | 0.00 | 52 | 1015.5 |
| 20260508150500 | 64 | 233 | 3.0 | 16.0 | 0.00 | 0.00 | 0.00 | 51 | 1015.5 |
| 20260508145959 | 63 | 222 | 2.0 | 9.0 | 0.00 | 0.00 | 0.00 | 52 | 1015.5 |
| 20260508145500 | 62 | 230 | 3.0 | 11.0 | 0.00 | 0.00 | 0.00 | 55 | 1015.4 |
| 20260508144959 | 62 | 228 | 4.0 | 11.0 | 0.00 | 0.00 | 0.00 | 51 | 1015.5 |
| 20260508144459 | 62 | 205 | 3.0 | 9.0 | 0.00 | 0.00 | 0.00 | 51 | 1015.6 |
| 20260508144000 | 61 | 213 | 3.0 | 9.0 | 0.00 | 0.00 | 0.00 | 54 | 1015.6 |
| 20260508143520 | 61 | 220 | 3.0 | 13.0 | 0.00 | 0.00 | 0.00 | 52 | 1015.6 |
| 20260508143000 | 60 | 226 | 3.0 | 13.0 | 0.00 | 0.00 | 0.00 | 54 | 1015.6 |
| 20260508142459 | 60 | 225 | 3.0 | 11.0 | 0.00 | 0.00 | 0.00 | 56 | 1015.7 |
| 20260508142000 | 60 | 207 | 3.0 | 11.0 | 0.00 | 0.00 | 0.00 | 53 | 1015.8 |
| 20260508141459 | 59 | 218 | 3.0 | 11.0 | 0.00 | 0.00 | 0.00 | 54 | 1015.9 |
| 20260508141000 | 59 | 219 | 4.0 | 10.0 | 0.00 | 0.00 | 0.00 | 54 | 1015.9 |
| 20260508140459 | 59 | 229 | 3.0 | 10.0 | 0.00 | 0.00 | 0.00 | 54 | 1015.9 |
| 20260508135959 | 58 | 233 | 3.0 | 10.0 | 0.00 | 0.00 | 0.00 | 55 | 1015.9 |
| 20260508135500 | 58 | 228 | 3.0 | 10.0 | 0.00 | 0.00 | 0.00 | 56 | 1016.1 |
| 20260508134959 | 58 | 238 | 3.0 | 10.0 | 0.00 | 0.00 | 0.00 | 56 | 1016.0 |
| 20260508134459 | 57 | 222 | 3.0 | 13.0 | 0.00 | 0.00 | 0.00 | 56 | 1016.0 |
| 20260508134020 | 57 | 207 | 3.0 | 13.0 | 0.00 | 0.00 | 0.00 | 54 | 1016.0 |
| 20260508133500 | 57 | 216 | 3.0 | 14.0 | 0.00 | 0.00 | 0.00 | 54 | 1016.0 |
| 20260508133000 | 57 | 224 | 2.0 | 14.0 | 0.00 | 0.00 | 0.00 | 54 | 1016.0 |
| 20260508132459 | 57 | 214 | 2.0 | 7.0 | 0.00 | 0.00 | 0.00 | 57 | 1015.9 |
| 20260508132000 | 57 | 212 | 3.0 | 9.0 | 0.00 | 0.00 | 0.00 | 56 | 1016.0 |
| 20260508131520 | 56 | 201 | 3.0 | 9.0 | 0.00 | 0.00 | 0.00 | 56 | 1016.0 |
| 20260508131000 | 56 | 206 | 3.0 | 11.0 | 0.00 | 0.00 | 0.00 | 57 | 1016.0 |
| 20260508130459 | 56 | 224 | 3.0 | 11.0 | 0.00 | 0.00 | 0.00 | 57 | 1015.9 |
| 20260508130000 | 55 | 223 | 2.0 | 7.0 | 0.00 | 0.00 | 0.00 | 58 | 1016.0 |
| 20260508125459 | 55 | 217 | 3.0 | 7.0 | 0.00 | 0.00 | 0.00 | 58 | 1016.1 |
| 20260508124959 | 54 | 188 | 2.0 | 11.0 | 0.00 | 0.00 | 0.00 | 58 | 1015.9 |
| 20260508124500 | 54 | 171 | 2.0 | 11.0 | 0.00 | 0.00 | 0.00 | 59 | 1015.9 |
| 20260508124000 | 54 | 185 | 2.0 | 7.0 | 0.00 | 0.00 | 0.00 | 59 | 1015.9 |
| 20260508123500 | 53 | 198 | 2.0 | 7.0 | 0.00 | 0.00 | 0.00 | 59 | 1015.9 |
| 20260508123000 | 53 | 200 | 2.0 | 11.0 | 0.00 | 0.00 | 0.00 | 62 | 1015.8 |